Time;durP1;ratioP1;P1;durP2;ratioP2;P2;SDS_P1;SDS_P2;PMS_P1;PMS_P2;Temp;Humidity;BMP_temperature;BMP_pressure;BME280_temperature;BME280_humidity;BME280_pressure;Samples;Min_cycle;Max_cycle;Signal;HPM_P1;HPM_P2
2021/12/31 12:40:15;;;;;;;66.77;34.47;;;;;;;8.79;100.00;99603.72;6124333;22;1380391;-75
2021/12/31 12:42:45;;;;;;;72.27;34.10;;;;;;;8.81;100.00;99607.88;6185297;22;20204;-77
2021/12/31 12:45:12;;;;;;;65.43;34.17;;;;;;;8.79;100.00;99615.16;6182537;22;20717;-77
2021/12/31 12:47:39;;;;;;;64.63;33.80;;;;;;;8.78;100.00;99605.53;6180731;22;20732;-76
2021/12/31 12:50:09;;;;;;;65.60;33.20;;;;;;;8.75;100.00;99610.31;6186819;22;20205;-76
2021/12/31 12:52:36;;;;;;;60.00;31.67;;;;;;;8.81;100.00;99605.22;6170652;22;20622;-76
2021/12/31 12:55:11;;;;;;;67.10;32.87;;;;;;;8.80;100.00;99605.38;6138685;22;20200;-77
2021/12/31 12:57:38;;;;;;;60.33;32.57;;;;;;;8.78;100.00;99600.22;6188429;22;20204;-78
2021/12/31 13:00:06;;;;;;;56.03;30.07;;;;;;;8.81;100.00;99599.91;6154871;23;20284;-77
2021/12/31 13:02:42;;;;;;;48.77;28.67;;;;;;;8.83;100.00;99608.56;6184274;22;20228;-79
2021/12/31 13:05:11;;;;;;;50.10;28.87;;;;;;;8.82;100.00;99606.03;6182044;22;20208;-75
2021/12/31 13:07:49;;;;;;;53.00;29.90;;;;;;;8.82;100.00;99595.44;6190183;22;20197;-78
2021/12/31 13:10:15;;;;;;;51.27;29.13;;;;;;;8.85;100.00;99601.28;6188406;22;20212;-76
2021/12/31 13:12:42;;;;;;;51.00;28.07;;;;;;;8.86;100.00;99596.81;6189366;22;20259;-77
2021/12/31 13:15:09;;;;;;;50.80;26.63;;;;;;;8.94;100.00;99599.50;6179681;22;20205;-77
2021/12/31 13:17:36;;;;;;;45.10;27.13;;;;;;;8.88;100.00;99590.34;6186688;22;20204;-77
2021/12/31 13:20:05;;;;;;;41.03;24.53;;;;;;;8.93;100.00;99591.72;6183416;22;20275;-76
2021/12/31 13:22:34;;;;;;;46.07;26.53;;;;;;;8.86;100.00;99589.66;6141764;22;20256;-76
2021/12/31 13:25:02;;;;;;;40.47;24.97;;;;;;;8.90;100.00;99592.00;6185823;22;20311;-76
2021/12/31 13:27:32;;;;;;;46.30;26.77;;;;;;;8.85;100.00;99590.66;6185995;22;20267;-77
2021/12/31 13:30:11;;;;;;;42.87;25.70;;;;;;;8.86;100.00;99581.72;6173642;22;20207;-76
2021/12/31 13:32:46;;;;;;;42.77;25.50;;;;;;;8.90;100.00;99594.66;6162818;22;20228;-76
2021/12/31 13:35:14;;;;;;;39.63;23.93;;;;;;;8.93;100.00;99589.06;6161028;22;20215;-75
2021/12/31 13:37:42;;;;;;;42.03;25.40;;;;;;;8.85;100.00;99580.06;6193058;22;21632;-77
2021/12/31 13:40:20;;;;;;;38.43;23.83;;;;;;;8.90;100.00;99584.03;6206846;22;20208;-85
2021/12/31 13:43:01;;;;;;;37.70;24.20;;;;;;;8.90;100.00;99584.03;6217819;22;20269;-76
2021/12/31 13:45:28;;;;;;;38.43;24.37;;;;;;;8.88;100.00;99574.44;6223876;22;20282;-77
2021/12/31 13:48:08;;;;;;;42.07;24.57;;;;;;;8.91;100.00;99577.75;6216356;22;20228;-74
2021/12/31 13:50:35;;;;;;;40.20;24.77;;;;;;;8.91;100.00;99577.75;6226769;22;20203;-77
2021/12/31 13:53:02;;;;;;;38.13;24.97;;;;;;;8.90;100.00;99574.28;6220152;22;20200;-81
2021/12/31 13:55:32;;;;;;;38.57;24.40;;;;;;;8.91;100.00;99583.06;6222285;22;20200;-80
2021/12/31 13:58:02;;;;;;;37.00;23.43;;;;;;;8.95;100.00;99579.13;6218025;22;20224;-82
2021/12/31 14:00:37;;;;;;;38.70;23.67;;;;;;;8.96;100.00;99578.94;6218581;22;20206;-80
2021/12/31 14:03:13;;;;;;;38.47;24.53;;;;;;;8.94;100.00;99577.44;6211288;22;20208;-81
2021/12/31 14:05:48;;;;;;;37.10;23.83;;;;;;;8.90;100.00;99587.56;6219919;22;20204;-78
2021/12/31 14:08:57;;;;;;;35.20;22.57;;;;;;;8.90;100.00;99584.91;6183391;22;20278;-74
2021/12/31 14:11:05;;;;;;;40.57;24.37;;;;;;;8.88;100.00;99587.69;6208527;22;20200;-76
2021/12/31 14:13:39;;;;;;;42.70;25.00;;;;;;;8.87;100.00;99590.50;6230811;22;20669;-79
2021/12/31 14:16:11;;;;;;;36.00;24.60;;;;;;;8.86;100.00;99589.66;6225523;22;20211;-75
2021/12/31 14:18:38;;;;;;;37.63;23.73;;;;;;;8.85;100.00;99585.38;6223380;22;20262;-75
2021/12/31 14:21:05;;;;;;;39.30;24.97;;;;;;;8.83;100.00;99590.00;6221875;22;20239;-74
2021/12/31 14:23:33;;;;;;;44.00;25.30;;;;;;;8.83;100.00;99582.03;6218857;22;20204;-82
2021/12/31 14:26:00;;;;;;;44.70;26.00;;;;;;;8.85;100.00;99585.38;6212859;22;20211;-77
2021/12/31 14:28:27;;;;;;;42.10;26.17;;;;;;;8.82;100.00;99593.59;6239094;22;20520;-75
2021/12/31 14:30:54;;;;;;;38.37;25.03;;;;;;;8.81;100.00;99584.00;6212861;22;20223;-72
2021/12/31 14:33:21;;;;;;;42.53;24.33;;;;;;;8.80;100.00;99586.78;6207613;22;20516;-73
2021/12/31 14:35:51;;;;;;;53.13;26.00;;;;;;;8.78;100.00;99584.31;6216424;22;20200;-74
2021/12/31 14:38:21;;;;;;;44.53;27.30;;;;;;;8.78;100.00;99581.66;6188909;22;20967;-73
2021/12/31 14:40:51;;;;;;;47.43;26.90;;;;;;;8.79;100.00;99583.31;6211180;22;20341;-71
2021/12/31 14:43:18;;;;;;;40.67;25.87;;;;;;;8.78;100.00;99588.78;6214516;22;20208;-74
2021/12/31 14:45:44;;;;;;;47.50;25.30;;;;;;;8.78;100.00;99589.63;6211194;22;20279;-73
2021/12/31 14:48:12;;;;;;;42.10;25.10;;;;;;;8.76;100.00;99588.94;6216239;22;20212;-73
2021/12/31 14:50:43;;;;;;;40.83;25.23;;;;;;;8.78;100.00;99584.31;6212141;22;20203;-74
2021/12/31 14:53:12;;;;;;;43.10;25.67;;;;;;;8.77;100.00;99598.56;6213303;22;20275;-75
2021/12/31 14:55:38;;;;;;;40.13;24.73;;;;;;;8.78;100.00;99584.31;6216488;22;20276;-74
2021/12/31 14:58:05;;;;;;;43.93;25.03;;;;;;;8.79;100.00;99585.97;6211750;22;20203;-72
2021/12/31 15:00:32;;;;;;;41.67;25.73;;;;;;;8.80;100.00;99594.75;6205895;22;20458;-73
2021/12/31 15:02:59;;;;;;;43.47;25.67;;;;;;;8.78;100.00;99581.66;6214143;22;20284;-73
2021/12/31 15:05:26;;;;;;;39.30;24.40;;;;;;;8.78;100.00;99576.34;6212320;22;21090;-75
2021/12/31 15:07:53;;;;;;;37.03;23.77;;;;;;;8.80;100.00;99571.75;6215122;22;21057;-72
2021/12/31 15:10:19;;;;;;;41.90;23.40;;;;;;;8.82;100.00;99569.72;6208949;22;20299;-73
2021/12/31 15:12:49;;;;;;;39.10;23.27;;;;;;;8.86;100.00;99586.19;6221527;22;20200;-71
2021/12/31 15:15:15;;;;;;;39.80;23.50;;;;;;;8.86;100.00;99579.06;6209221;22;20217;-73
2021/12/31 15:17:42;;;;;;;37.27;22.03;;;;;;;8.84;100.00;99578.38;6182577;22;20287;-72
2021/12/31 15:20:09;;;;;;;41.50;22.73;;;;;;;8.86;100.00;99570.28;6210754;22;20254;-72
2021/12/31 15:22:36;;;;;;;38.20;22.63;;;;;;;8.86;100.00;99576.41;6216622;22;20204;-75
2021/12/31 15:25:06;;;;;;;37.20;22.90;;;;;;;8.85;100.00;99558.84;6210115;22;20303;-71
2021/12/31 15:27:33;;;;;;;40.13;23.30;;;;;;;8.87;100.00;99559.50;6216592;22;20395;-73
2021/12/31 15:30:00;;;;;;;32.33;20.47;;;;;;;8.92;100.00;99558.19;6213914;22;20207;-74
2021/12/31 15:32:27;;;;;;;35.13;20.43;;;;;;;8.93;100.00;99552.75;6216104;22;20943;-73
2021/12/31 15:34:54;;;;;;;32.20;20.27;;;;;;;8.98;100.00;99557.59;6236315;22;20298;-73
2021/12/31 15:37:21;;;;;;;31.20;19.97;;;;;;;8.92;100.00;99558.19;6245527;22;20216;-72
2021/12/31 15:39:47;;;;;;;29.13;19.17;;;;;;;8.95;100.00;99555.25;6215934;22;20204;-74
2021/12/31 15:42:14;;;;;;;30.10;19.77;;;;;;;8.90;100.00;99549.56;6212905;22;20204;-72
2021/12/31 15:44:41;;;;;;;27.87;19.30;;;;;;;8.90;100.00;99545.09;6232952;22;20380;-73
2021/12/31 15:47:08;;;;;;;29.83;18.53;;;;;;;8.94;100.00;99550.91;6244807;22;20326;-72
2021/12/31 15:49:34;;;;;;;30.23;18.00;;;;;;;8.96;100.00;99546.28;6221999;22;20254;-71
2021/12/31 15:52:01;;;;;;;30.07;17.47;;;;;;;8.96;100.00;99538.31;6237435;22;20208;-72
2021/12/31 15:54:28;;;;;;;34.77;20.43;;;;;;;8.96;100.00;99539.16;6214137;22;20207;-73
2021/12/31 15:56:54;;;;;;;31.93;17.30;;;;;;;8.95;100.00;99537.50;6215965;22;20492;-72
2021/12/31 15:59:21;;;;;;;27.13;15.70;;;;;;;8.92;100.00;99548.44;6212530;22;20542;-72
2021/12/31 16:01:49;;;;;;;27.17;16.43;;;;;;;8.95;100.00;99539.31;6238801;22;20934;-72
2021/12/31 16:04:19;;;;;;;29.80;16.63;;;;;;;8.92;100.00;99531.66;6213035;22;20303;-71
2021/12/31 16:06:46;;;;;;;28.47;16.00;;;;;;;8.94;100.00;99527.03;6212307;22;20232;-72
2021/12/31 16:09:13;;;;;;;25.37;14.57;;;;;;;8.94;100.00;99530.50;6215151;22;20204;-72
2021/12/31 16:11:40;;;;;;;25.43;14.43;;;;;;;8.90;100.00;99526.53;6215955;22;20204;-71
2021/12/31 16:14:07;;;;;;;24.60;14.57;;;;;;;8.95;100.00;99526.88;6211112;22;20781;-72
2021/12/31 16:16:33;;;;;;;23.90;14.90;;;;;;;8.95;100.00;99523.41;6217112;22;20275;-72
2021/12/31 16:19:00;;;;;;;23.53;13.70;;;;;;;8.94;100.00;99519.91;6217400;22;20657;-72
2021/12/31 16:21:26;;;;;;;24.43;14.33;;;;;;;8.95;100.00;99528.72;6211816;22;20519;-71
2021/12/31 16:23:53;;;;;;;28.40;16.50;;;;;;;8.91;100.00;99522.06;6211736;22;20228;-73
2021/12/31 16:26:20;;;;;;;29.60;16.77;;;;;;;8.85;100.00;99516.38;6214932;22;20311;-71
2021/12/31 16:28:46;;;;;;;27.00;16.50;;;;;;;8.85;100.00;99516.38;6191579;22;20546;-73
2021/12/31 16:31:15;;;;;;;24.90;14.80;;;;;;;8.86;100.00;99522.53;6211482;22;20683;-71
2021/12/31 16:33:42;;;;;;;25.20;14.37;;;;;;;8.82;100.00;99521.16;6211938;22;20664;-72
2021/12/31 16:36:09;;;;;;;28.13;13.73;;;;;;;8.85;100.00;99520.88;6200765;22;20747;-71
2021/12/31 16:38:35;;;;;;;22.70;14.10;;;;;;;8.78;100.00;99515.34;6211204;22;20971;-72
2021/12/31 16:41:02;;;;;;;23.53;13.43;;;;;;;8.88;100.00;99509.94;6195958;22;20275;-74
2021/12/31 16:43:29;;;;;;;27.47;13.03;;;;;;;8.86;100.00;99506.59;6188924;22;20281;-76
2021/12/31 16:45:56;;;;;;;25.70;13.87;;;;;;;8.91;100.00;99519.41;6181609;22;20305;-74
2021/12/31 16:48:23;;;;;;;25.37;12.50;;;;;;;8.94;100.00;99508.47;6163613;22;20203;-71
2021/12/31 16:50:50;;;;;;;22.87;11.73;;;;;;;8.91;100.00;99506.97;6188908;22;20587;-73
2021/12/31 16:53:18;;;;;;;22.30;11.90;;;;;;;8.92;100.00;99505.13;6185746;22;20208;-81
2021/12/31 16:55:44;;;;;;;22.43;12.20;;;;;;;8.90;100.00;99493.84;6163002;22;20291;-83
2021/12/31 16:58:11;;;;;;;22.67;11.97;;;;;;;8.91;100.00;99504.31;6195086;22;20208;-78
2021/12/31 17:00:38;;;;;;;23.30;11.60;;;;;;;8.93;100.00;99506.81;6172443;22;20307;-77
2021/12/31 17:03:05;;;;;;;22.17;11.13;;;;;;;8.96;100.00;99496.69;6191266;22;20265;-78
2021/12/31 17:05:33;;;;;;;23.27;11.60;;;;;;;8.96;100.00;99499.34;6187635;22;20212;-81
2021/12/31 17:08:01;;;;;;;18.40;11.63;;;;;;;8.95;100.00;99497.69;6165935;22;20227;-78
2021/12/31 17:10:34;;;;;;;20.37;10.93;;;;;;;9.05;100.00;99500.22;6159992;22;20626;-79
2021/12/31 17:13:02;;;;;;;20.23;11.23;;;;;;;9.04;100.00;99498.59;6193222;22;20208;-78
2021/12/31 17:15:29;;;;;;;18.97;10.93;;;;;;;9.03;100.00;99507.50;6182195;22;20232;-79
2021/12/31 17:17:56;;;;;;;21.03;10.37;;;;;;;9.01;100.00;99486.47;6189027;22;20834;-81
2021/12/31 17:20:23;;;;;;;19.60;10.63;;;;;;;9.04;100.00;99483.47;6190797;22;20262;-79
2021/12/31 17:22:49;;;;;;;19.13;10.27;;;;;;;9.05;100.00;99481.66;6190184;22;21109;-79
2021/12/31 17:25:16;;;;;;;22.57;10.60;;;;;;;9.03;100.00;99478.31;6198791;22;20810;-81
2021/12/31 17:27:43;;;;;;;20.37;11.03;;;;;;;9.04;100.00;99478.19;6186452;22;20265;-80
2021/12/31 17:30:10;;;;;;;21.20;10.80;;;;;;;8.99;100.00;99475.19;6160668;22;20283;-86
2021/12/31 17:32:37;;;;;;;18.43;10.60;;;;;;;8.95;100.00;99475.66;6187199;22;20254;-80
2021/12/31 17:35:04;;;;;;;23.97;11.50;;;;;;;8.92;100.00;99474.16;6168933;22;20262;-84
2021/12/31 17:37:33;;;;;;;23.67;11.23;;;;;;;8.91;100.00;99474.28;6157657;22;20579;-87
2021/12/31 17:40:01;;;;;;;20.67;11.33;;;;;;;8.95;100.00;99471.16;6171096;22;20883;-85
2021/12/31 17:42:31;;;;;;;21.20;11.03;;;;;;;8.88;100.00;99468.31;6150838;22;20201;-85
2021/12/31 17:44:58;;;;;;;19.80;11.37;;;;;;;8.93;100.00;99472.31;6147333;22;20200;-83
2021/12/31 17:47:25;;;;;;;19.80;10.33;;;;;;;8.95;100.00;99481.78;6150264;22;20276;-83
2021/12/31 17:49:52;;;;;;;22.57;10.60;;;;;;;8.97;100.00;99471.03;6175191;22;20201;-81
2021/12/31 17:52:19;;;;;;;19.13;10.23;;;;;;;9.00;100.00;99478.66;6159585;22;20215;-82
2021/12/31 17:54:49;;;;;;;23.20;10.57;;;;;;;8.97;100.00;99476.31;6136369;22;20270;-86
2021/12/31 17:57:16;;;;;;;19.53;10.20;;;;;;;8.95;100.00;99484.44;6139173;22;20324;-85
2021/12/31 17:59:45;;;;;;;21.60;11.13;;;;;;;8.96;100.00;99485.25;6143610;22;20240;-83
2021/12/31 18:02:13;;;;;;;23.97;10.53;;;;;;;8.98;100.00;99477.97;6141006;22;20200;-87
2021/12/31 18:04:40;;;;;;;18.07;9.37;;;;;;;8.96;100.00;99470.16;6159598;22;20197;-78
2021/12/31 18:07:07;;;;;;;18.90;9.37;;;;;;;8.99;100.00;99475.19;5456059;22;20206;-76
2021/12/31 18:09:34;;;;;;;20.23;10.17;;;;;;;9.00;100.00;99470.69;5078115;22;20239;-75
2021/12/31 18:12:01;;;;;;;22.53;10.07;;;;;;;9.00;100.00;99470.69;5119558;22;20260;-77
2021/12/31 18:14:27;;;;;;;22.20;9.43;;;;;;;9.03;100.00;99468.53;5105544;22;20435;-74
2021/12/31 18:16:55;;;;;;;22.53;10.67;;;;;;;9.04;100.00;99462.25;5125159;22;20206;-80
2021/12/31 18:19:22;;;;;;;19.47;10.83;;;;;;;8.99;100.00;99464.56;5111026;22;22606;-75
2021/12/31 18:21:48;;;;;;;21.67;9.73;;;;;;;9.00;100.00;99457.44;5112803;22;22528;-74
2021/12/31 18:24:15;;;;;;;17.40;8.93;;;;;;;9.01;100.00;99467.03;5098564;22;20211;-74
2021/12/31 18:26:41;;;;;;;18.87;8.70;;;;;;;9.04;100.00;99462.25;5089634;22;20708;-74
2021/12/31 18:29:08;;;;;;;14.10;8.10;;;;;;;9.04;100.00;99462.25;5115153;22;20271;-77
2021/12/31 18:31:35;;;;;;;16.27;8.57;;;;;;;9.03;100.00;99465.88;5066188;22;20623;-78
2021/12/31 18:34:02;;;;;;;17.40;8.70;;;;;;;9.01;100.00;99467.03;5165010;22;20601;-79
2021/12/31 18:36:29;;;;;;;15.53;8.37;;;;;;;9.03;100.00;99475.66;5113745;22;20284;-73
2021/12/31 18:38:55;;;;;;;16.90;7.90;;;;;;;9.07;100.00;99471.72;5086563;22;21578;-74
2021/12/31 18:41:22;;;;;;;19.40;9.07;;;;;;;8.97;100.00;99477.16;5097948;22;20228;-74
2021/12/31 18:43:49;;;;;;;23.70;8.70;;;;;;;9.00;100.00;99476.00;5099834;22;20980;-77
2021/12/31 18:46:30;;;;;;;17.07;8.70;;;;;;;9.00;100.00;99470.69;5128559;22;21398;-79
2021/12/31 18:49:03;;;;;;;18.87;8.30;;;;;;;8.95;100.00;99473.81;5157598;22;20251;-80
2021/12/31 18:51:30;;;;;;;16.87;8.03;;;;;;;9.00;100.00;99473.34;5096123;22;20221;-80
2021/12/31 18:53:57;;;;;;;16.60;8.47;;;;;;;8.96;100.00;99469.34;5068833;22;22232;-78
2021/12/31 18:56:24;;;;;;;15.67;8.20;;;;;;;8.97;100.00;99460.41;5061276;23;24609;-80
2021/12/31 18:58:53;;;;;;;17.57;8.37;;;;;;;9.01;100.00;99467.03;5117289;22;20603;-79
2021/12/31 19:01:20;;;;;;;17.07;8.17;;;;;;;9.00;100.00;99471.50;5103349;22;21220;-81
2021/12/31 19:03:47;;;;;;;19.73;9.47;;;;;;;8.97;100.00;99465.72;5123452;22;20205;-79
2021/12/31 19:06:14;;;;;;;14.87;7.80;;;;;;;8.96;100.00;99464.03;5110649;22;20278;-79
2021/12/31 19:08:40;;;;;;;16.13;7.67;;;;;;;8.96;100.00;99464.03;5125801;22;20221;-76
2021/12/31 19:11:07;;;;;;;16.90;7.77;;;;;;;9.03;100.00;99468.53;5109929;22;21068;-78
2021/12/31 19:13:34;;;;;;;22.23;8.23;;;;;;;9.04;100.00;99462.25;5101238;22;20203;-82
2021/12/31 19:16:01;;;;;;;21.57;9.23;;;;;;;8.98;100.00;99456.75;5118430;22;20243;-76
2021/12/31 19:18:32;;;;;;;19.43;9.37;;;;;;;9.01;100.00;99464.38;5115602;22;22275;-78
2021/12/31 19:21:00;;;;;;;23.40;9.37;;;;;;;8.95;100.00;99454.41;5115629;22;20206;-77
2021/12/31 19:23:27;;;;;;;20.70;9.13;;;;;;;8.96;100.00;99467.50;5124328;22;20613;-74
2021/12/31 19:25:54;;;;;;;18.43;8.93;;;;;;;9.02;100.00;99452.78;5114544;22;20206;-75
2021/12/31 19:28:21;;;;;;;17.63;8.23;;;;;;;9.04;100.00;99456.13;5122827;22;20202;-78
2021/12/31 19:30:48;;;;;;;19.00;8.13;;;;;;;8.98;100.00;99462.06;5130477;22;20905;-74
2021/12/31 19:33:14;;;;;;;18.40;9.30;;;;;;;8.97;100.00;99460.41;5120069;22;20206;-78
2021/12/31 19:35:42;;;;;;;29.27;15.97;;;;;;;8.93;100.00;99461.69;5112654;22;20236;-80
2021/12/31 19:38:09;;;;;;;21.87;11.37;;;;;;;8.88;100.00;99465.66;5127493;22;21193;-78
2021/12/31 19:40:35;;;;;;;24.93;10.83;;;;;;;8.98;100.00;99470.00;5141591;22;20209;-75
2021/12/31 19:43:02;;;;;;;20.27;9.70;;;;;;;8.89;100.00;99477.09;5110403;22;20275;-77
2021/12/31 19:45:34;;;;;;;17.83;8.57;;;;;;;8.88;100.00;99470.97;5113173;22;20264;-80
2021/12/31 19:48:02;;;;;;;25.10;8.77;;;;;;;8.85;100.00;99473.94;5119846;22;21216;-80
2021/12/31 19:50:29;;;;;;;21.93;9.30;;;;;;;8.84;100.00;99474.91;5074045;22;21184;-78
2021/12/31 19:52:55;;;;;;;17.10;9.40;;;;;;;8.86;100.00;99472.09;5145733;22;20213;-81
2021/12/31 19:55:22;;;;;;;22.20;10.50;;;;;;;8.81;100.00;99469.94;5128000;22;20205;-81
2021/12/31 19:57:49;;;;;;;23.43;10.53;;;;;;;8.81;100.00;99466.44;5097728;22;22255;-82
2021/12/31 20:00:19;;;;;;;21.53;12.50;;;;;;;8.78;100.00;99469.41;5100995;22;26067;-77
2021/12/31 20:02:49;;;;;;;23.17;10.50;;;;;;;8.81;100.00;99480.53;5123576;22;20210;-78
2021/12/31 20:05:20;;;;;;;20.67;10.53;;;;;;;8.76;100.00;99474.88;5122672;22;20206;-81
2021/12/31 20:07:47;;;;;;;17.73;10.90;;;;;;;8.74;100.00;99476.84;5106291;22;25990;-78
2021/12/31 20:10:16;;;;;;;19.13;10.93;;;;;;;8.73;100.00;99469.88;5112174;22;21203;-78
2021/12/31 20:12:43;;;;;;;19.80;10.53;;;;;;;8.68;100.00;99469.50;5118173;22;20272;-81
2021/12/31 20:15:10;;;;;;;21.27;10.53;;;;;;;8.66;100.00;99484.75;5097777;22;20232;-83
2021/12/31 20:17:38;;;;;;;22.90;10.77;;;;;;;8.63;100.00;99477.09;5091202;22;20201;-76
2021/12/31 20:20:10;;;;;;;21.40;11.27;;;;;;;8.64;100.00;99473.50;5085930;23;20566;-82
2021/12/31 20:22:37;;;;;;;19.40;9.90;;;;;;;8.64;100.00;99473.50;5104632;22;20209;-73
2021/12/31 20:25:05;;;;;;;19.10;10.67;;;;;;;8.65;100.00;99469.84;5104622;22;21226;-78
2021/12/31 20:27:32;;;;;;;23.77;11.87;;;;;;;8.60;100.00;99475.59;5139648;22;20911;-78
2021/12/31 20:29:59;;;;;;;20.10;11.90;;;;;;;8.69;100.00;99476.50;5124299;22;22703;-83
2021/12/31 20:32:25;;;;;;;26.87;13.10;;;;;;;8.65;100.00;99480.44;5104621;22;20202;-77
2021/12/31 20:34:52;;;;;;;26.60;12.73;;;;;;;8.64;100.00;99476.97;5118099;22;20198;-79
2021/12/31 20:37:19;;;;;;;22.17;11.47;;;;;;;8.72;100.00;99478.81;5096642;23;21197;-79
2021/12/31 20:39:46;;;;;;;23.17;11.50;;;;;;;8.77;100.00;99481.84;5069756;22;20213;-76
2021/12/31 20:42:13;;;;;;;22.73;11.47;;;;;;;8.76;100.00;99485.50;5104202;22;20210;-78
2021/12/31 20:44:40;;;;;;;19.70;11.87;;;;;;;8.79;100.00;99494.94;5125643;22;20307;-78
2021/12/31 20:47:07;;;;;;;23.40;12.40;;;;;;;8.73;100.00;99485.78;5132651;22;20213;-79
2021/12/31 20:49:34;;;;;;;25.00;11.73;;;;;;;8.71;100.00;99474.53;5130737;22;20391;-79
2021/12/31 20:52:01;;;;;;;19.47;10.80;;;;;;;8.67;100.00;99483.78;5128208;22;25918;-81
2021/12/31 20:54:29;;;;;;;22.17;11.60;;;;;;;8.69;100.00;99484.47;5136645;22;21673;-80
2021/12/31 20:56:56;;;;;;;17.67;11.37;;;;;;;8.75;100.00;99489.13;5124980;22;22333;-77
2021/12/31 20:59:23;;;;;;;22.17;11.53;;;;;;;8.76;100.00;99489.97;5111470;22;20276;-77
2021/12/31 21:01:49;;;;;;;21.17;11.63;;;;;;;8.73;100.00;99495.56;5101303;22;21031;-79
2021/12/31 21:04:17;;;;;;;20.53;11.80;;;;;;;8.73;100.00;99487.59;5117393;22;20588;-76
2021/12/31 21:06:43;;;;;;;24.13;12.00;;;;;;;8.69;100.00;99492.41;5110060;22;21272;-75
2021/12/31 21:09:10;;;;;;;23.20;12.13;;;;;;;8.67;100.00;99483.78;5118988;22;20202;-79
2021/12/31 21:11:36;;;;;;;27.27;13.27;;;;;;;8.68;100.00;99490.72;5125567;22;21598;-76
2021/12/31 21:14:03;;;;;;;22.53;12.43;;;;;;;8.73;100.00;99499.03;5122645;22;20201;-77
2021/12/31 21:16:30;;;;;;;23.30;12.87;;;;;;;8.66;100.00;99495.34;5107516;23;20207;-79
2021/12/31 21:18:56;;;;;;;24.83;12.93;;;;;;;8.69;100.00;99492.41;5066827;22;20266;-81
2021/12/31 21:21:23;;;;;;;23.97;13.70;;;;;;;8.73;100.00;99495.56;5120212;22;20206;-78
2021/12/31 21:23:49;;;;;;;26.97;14.77;;;;;;;8.67;100.00;99494.38;5130887;22;20681;-77
2021/12/31 21:26:16;;;;;;;27.50;14.00;;;;;;;8.70;100.00;99490.59;5116009;22;20235;-78
2021/12/31 21:28:45;;;;;;;24.43;13.07;;;;;;;8.71;100.00;99501.06;5090644;22;21564;-80
2021/12/31 21:31:12;;;;;;;27.47;14.60;;;;;;;8.70;100.00;99495.88;5095358;22;20713;-77
2021/12/31 21:33:39;;;;;;;21.03;14.43;;;;;;;8.71;100.00;99497.53;5142467;22;21010;-76
2021/12/31 21:36:08;;;;;;;28.20;15.07;;;;;;;8.71;100.00;99500.19;5125056;22;20213;-77
2021/12/31 21:38:34;;;;;;;22.03;13.27;;;;;;;8.69;100.00;99500.38;5094453;22;20214;-77
2021/12/31 21:41:02;;;;;;;22.93;14.37;;;;;;;8.68;100.00;99501.34;5104247;22;20198;-79
2021/12/31 21:43:30;;;;;;;20.90;13.30;;;;;;;8.71;100.00;99506.34;5142340;22;20207;-78
2021/12/31 21:45:56;;;;;;;31.03;14.87;;;;;;;8.69;100.00;99504.84;5132529;22;26071;-80
2021/12/31 21:48:23;;;;;;;26.70;14.43;;;;;;;8.69;100.00;99505.66;5158125;22;20209;-77
2021/12/31 21:50:50;;;;;;;24.80;14.40;;;;;;;8.69;100.00;99497.72;5147013;22;21866;-80
2021/12/31 21:53:16;;;;;;;24.63;14.33;;;;;;;8.69;100.00;99500.38;5158649;22;20213;-77
2021/12/31 21:55:43;;;;;;;24.57;14.30;;;;;;;8.70;100.00;99499.38;5133719;22;20664;-77
2021/12/31 21:58:12;;;;;;;26.33;14.53;;;;;;;8.68;100.00;99504.00;5134244;22;22608;-78
2021/12/31 22:00:39;;;;;;;27.80;16.47;;;;;;;8.64;100.00;99498.19;5129112;22;20210;-79
2021/12/31 22:03:07;;;;;;;28.63;16.30;;;;;;;8.73;100.00;99496.41;5086773;22;20206;-77
2021/12/31 22:05:34;;;;;;;27.17;15.23;;;;;;;8.72;100.00;99508.00;5130489;22;25025;-74
2021/12/31 22:08:01;;;;;;;26.13;15.03;;;;;;;8.68;100.00;99501.34;5098473;22;20242;-76
2021/12/31 22:10:27;;;;;;;26.93;15.37;;;;;;;8.69;100.00;99503.03;5130054;22;26261;-76
2021/12/31 22:12:54;;;;;;;25.57;14.60;;;;;;;8.66;100.00;99501.50;5097751;22;20202;-76
2021/12/31 22:15:20;;;;;;;24.73;15.77;;;;;;;8.66;100.00;99501.50;5132582;22;20206;-74
2021/12/31 22:17:47;;;;;;;24.90;15.17;;;;;;;8.68;100.00;99496.03;5112738;22;22832;-77
2021/12/31 22:20:13;;;;;;;25.47;15.90;;;;;;;8.69;100.00;99504.84;5131496;22;20296;-78
2021/12/31 22:22:40;;;;;;;27.70;15.07;;;;;;;8.65;100.00;99499.84;5107778;22;20233;-77
2021/12/31 22:25:08;;;;;;;22.63;14.77;;;;;;;8.58;100.00;99506.75;5098695;22;20445;-76
2021/12/31 22:27:34;;;;;;;30.47;15.40;;;;;;;8.59;100.00;99505.78;5118756;22;20216;-77
2021/12/31 22:30:01;;;;;;;27.00;14.97;;;;;;;8.59;100.00;99495.16;5107388;22;20275;-78
2021/12/31 22:32:28;;;;;;;27.73;14.50;;;;;;;8.59;100.00;99505.78;5089517;22;20433;-77
2021/12/31 22:34:54;;;;;;;37.07;21.93;;;;;;;8.59;100.00;99499.63;5126604;22;21242;-77
2021/12/31 22:37:22;;;;;;;32.67;20.60;;;;;;;8.59;100.00;99516.38;5118868;22;20205;-79
2021/12/31 22:39:49;;;;;;;30.47;18.50;;;;;;;8.56;100.00;99508.72;5124394;22;20261;-76
2021/12/31 22:42:15;;;;;;;26.70;16.60;;;;;;;8.57;100.00;99506.88;5126894;22;21184;-76
2021/12/31 22:45:03;;;;;;;37.30;19.13;;;;;;;8.55;100.00;99519.50;5146965;22;21681;-75
2021/12/31 22:47:30;;;;;;;30.93;16.40;;;;;;;8.58;100.00;99517.34;5130488;22;21464;-79
2021/12/31 22:49:57;;;;;;;27.50;16.43;;;;;;;8.59;100.00;99527.00;5095665;22;20202;-78
2021/12/31 22:52:23;;;;;;;31.87;16.60;;;;;;;8.57;100.00;99528.09;5117500;22;22435;-76
2021/12/31 22:54:50;;;;;;;27.43;16.43;;;;;;;8.60;100.00;99533.13;5121711;22;20208;-78
2021/12/31 22:57:20;;;;;;;28.83;16.97;;;;;;;8.64;100.00;99550.41;5118374;22;20646;-78
2021/12/31 22:59:46;;;;;;;26.13;16.60;;;;;;;8.61;100.00;99540.06;5111411;22;20842;-78
2021/12/31 23:02:13;;;;;;;265.90;148.17;;;;;;;8.58;100.00;99540.41;5123435;22;21137;-77
2021/12/31 23:04:40;;;;;;;206.03;119.80;;;;;;;8.62;100.00;99547.88;5121488;22;20209;-77
2021/12/31 23:07:08;;;;;;;240.17;135.47;;;;;;;8.62;100.00;99545.22;5128052;22;20505;-77
2021/12/31 23:09:34;;;;;;;267.53;143.13;;;;;;;8.64;100.00;99555.69;5115720;22;22192;-77
2021/12/31 23:12:07;;;;;;;187.70;105.27;;;;;;;8.64;100.00;99545.09;5113341;22;20205;-77
2021/12/31 23:14:35;;;;;;;149.23;84.03;;;;;;;8.58;100.00;99546.53;5132820;22;20277;-80
2021/12/31 23:17:03;;;;;;;121.00;65.40;;;;;;;8.54;100.00;99544.34;5098897;22;21238;-83
2021/12/31 23:19:29;;;;;;;108.93;57.27;;;;;;;8.52;100.00;99546.31;5116199;22;20252;-81
2021/12/31 23:21:56;;;;;;;91.73;51.93;;;;;;;8.49;100.00;99538.66;5080880;22;20285;-81
2021/12/31 23:24:23;;;;;;;71.23;40.33;;;;;;;8.53;100.00;99530.25;5134452;22;20271;-82
2021/12/31 23:26:52;;;;;;;76.83;41.30;;;;;;;8.52;100.00;99535.69;5191069;22;20204;-80
2021/12/31 23:29:19;;;;;;;79.47;44.53;;;;;;;8.51;100.00;99531.38;5113372;23;20243;-79
2021/12/31 23:31:46;;;;;;;77.23;41.80;;;;;;;8.47;100.00;99533.50;5109647;22;21125;-77
2021/12/31 23:34:12;;;;;;;81.40;43.60;;;;;;;8.49;100.00;99539.50;5128363;22;20201;-80
2021/12/31 23:36:59;;;;;;;88.63;46.83;;;;;;;8.43;100.00;99535.66;5151895;22;20221;-80
2021/12/31 23:39:27;;;;;;;89.87;48.50;;;;;;;8.44;100.00;99539.94;5144614;22;20370;-81
2021/12/31 23:42:08;;;;;;;86.97;48.07;;;;;;;8.41;100.00;99537.63;5136351;22;23330;-80
2021/12/31 23:44:35;;;;;;;91.17;45.70;;;;;;;8.44;100.00;99539.94;5160200;22;21146;-78
2021/12/31 23:47:02;;;;;;;82.63;46.67;;;;;;;8.42;100.00;99536.63;5121153;22;20287;-74
2021/12/31 23:49:29;;;;;;;91.77;47.50;;;;;;;8.43;100.00;99543.59;5139206;22;20511;-77
2021/12/31 23:51:55;;;;;;;82.97;46.90;;;;;;;8.45;100.00;99546.94;5118288;22;21762;-76
2021/12/31 23:54:22;;;;;;;85.33;45.50;;;;;;;8.45;100.00;99544.28;5130835;22;20284;-77
2021/12/31 23:56:51;;;;;;;83.17;41.90;;;;;;;8.47;100.00;99546.75;5098331;22;20253;-75
2021/12/31 23:59:18;;;;;;;63.63;36.37;;;;;;;8.51;100.00;99542.81;5122176;22;23449;-76
